Search for airport 
image banner adimage banner adimage banner ad
image banner ad

82PA - Frame Fld

Located in Candor, United States

ICAO - 82PA, IATA -

Data provided by Airmate  

General information

Coordinates: N40°23'48" W80°18'19"
Elevation is 1210 feet MSL.
Magnetic variation is -07° East
View others Airports in Pennsylvania

Operational data

Special qualification required
Current time UTC:
Current local time:
Weather at : KPIT - Pittsburgh Intl ( 12 km )
METAR: KPIT 152151Z 33013G20KT 10SM SCT045 BKN055 BKN250 23/11 A2992 RMK AO2 SLP135 T02280106
TAF: KPIT 152100Z 1521/1624 33010G20KT P6SM SCT040 FM152300 33008KT P6SM SCT120 FM160300 32005KT P6SM SKC
View NOTAMs / SUP AIP / TFR affecting this airport [VIEW]
Communications frequencies: [VIEW]

Runways:

RWY identifierQFULength (ft)Width (ft)SurfaceLDA (ft)
121200200GRASS
301200200GRASS

Airport contact information

Address: Candor United States

Satellite view of 82PA